Time;durP1;ratioP1;P1;durP2;ratioP2;P2;SDS_P1;SDS_P2;PMS_P1;PMS_P2;Temp;Humidity;BMP_temperature;BMP_pressure;BME280_temperature;BME280_humidity;BME280_pressure;Samples;Min_cycle;Max_cycle;Signal;HPM_P1;HPM_P2
2023/08/31 00:03:44;;;;;;;;;;;13.60;99.90;;;;;;21162841;28;19973;-77
2023/08/31 00:13:45;;;;;;;;;;;13.80;99.90;;;;;;21160271;28;20004;-76
2023/08/31 00:23:45;;;;;;;;;;;13.90;99.90;;;;;;21162926;28;19916;-77
2023/08/31 00:33:46;;;;;;;;;;;13.80;99.90;;;;;;21146733;28;19923;-78
2023/08/31 00:43:46;;;;;;;;;;;13.90;99.90;;;;;;21162173;28;19916;-78
2023/08/31 00:53:48;;;;;;;;;;;14.20;99.90;;;;;;21160302;28;19912;-77
2023/08/31 01:04:03;;;;;;;;;;;14.20;99.90;;;;;;21159449;28;19971;-77
2023/08/31 01:14:11;;;;;;;;;;;14.30;99.90;;;;;;21159578;28;19912;-78
2023/08/31 01:24:12;;;;;;;;;;;14.20;99.90;;;;;;21141895;28;19915;-78
2023/08/31 01:34:12;;;;;;;;;;;14.30;99.90;;;;;;21161262;28;19915;-78
2023/08/31 01:44:16;;;;;;;;;;;14.40;99.90;;;;;;21160652;28;19956;-78
2023/08/31 01:54:17;;;;;;;;;;;14.10;99.90;;;;;;21161272;28;20277;-78
2023/08/31 02:04:18;;;;;;;;;;;14.00;99.90;;;;;;21141902;28;19927;-78
2023/08/31 02:14:19;;;;;;;;;;;13.80;99.90;;;;;;21132171;28;19911;-78
2023/08/31 02:24:19;;;;;;;;;;;13.60;99.90;;;;;;21153600;28;19916;-77
2023/08/31 02:34:20;;;;;;;;;;;13.40;99.90;;;;;;21140723;28;20293;-78
2023/08/31 02:44:21;;;;;;;;;;;13.30;99.90;;;;;;21158936;28;19915;-78
2023/08/31 02:54:21;;;;;;;;;;;13.10;99.90;;;;;;21115613;28;19911;-78
2023/08/31 03:04:22;;;;;;;;;;;13.00;99.90;;;;;;21141858;28;19917;-78
2023/08/31 03:14:23;;;;;;;;;;;13.00;99.90;;;;;;21126476;28;20295;-78
2023/08/31 03:24:24;;;;;;;;;;;13.00;99.90;;;;;;21139920;28;19922;-78
2023/08/31 03:34:28;;;;;;;;;;;13.00;99.90;;;;;;21139990;28;19958;-76
2023/08/31 03:44:29;;;;;;;;;;;13.00;99.90;;;;;;21137158;28;19922;-75
2023/08/31 03:54:30;;;;;;;;;;;12.90;99.90;;;;;;21153242;28;19912;-77
2023/08/31 04:04:32;;;;;;;;;;;12.90;99.90;;;;;;21137693;28;19916;-76
2023/08/31 04:14:32;;;;;;;;;;;12.90;99.90;;;;;;21165180;27;20322;-77
2023/08/31 04:24:33;;;;;;;;;;;12.80;99.90;;;;;;21134348;28;19916;-77
2023/08/31 04:34:34;;;;;;;;;;;12.80;99.90;;;;;;21189815;22;20637;-75
2023/08/31 04:44:35;;;;;;;;;;;12.80;99.90;;;;;;21098763;28;19970;-76
2023/08/31 04:54:35;;;;;;;;;;;12.70;99.90;;;;;;21084033;28;20003;-77
2023/08/31 05:04:36;;;;;;;;;;;12.70;99.90;;;;;;21070819;28;19995;-75
2023/08/31 05:14:37;;;;;;;;;;;12.70;99.90;;;;;;21031085;28;20010;-75
2023/08/31 05:24:37;;;;;;;;;;;12.70;99.90;;;;;;21073943;28;19970;-76
2023/08/31 05:34:39;;;;;;;;;;;12.70;99.90;;;;;;21084196;28;20011;-76
2023/08/31 05:44:39;;;;;;;;;;;12.70;99.90;;;;;;21069398;28;19955;-76
2023/08/31 05:54:40;;;;;;;;;;;12.80;99.90;;;;;;21074987;28;19920;-75
2023/08/31 06:04:41;;;;;;;;;;;13.10;99.90;;;;;;21060866;28;19916;-76
2023/08/31 06:14:41;;;;;;;;;;;13.30;99.90;;;;;;21078277;28;19988;-76
2023/08/31 06:24:42;;;;;;;;;;;13.40;99.90;;;;;;21053966;28;19920;-75
2023/08/31 06:34:43;;;;;;;;;;;13.80;99.90;;;;;;21079201;28;20328;-76
2023/08/31 06:44:43;;;;;;;;;;;14.20;99.90;;;;;;21076009;28;19916;-77
2023/08/31 06:54:44;;;;;;;;;;;14.50;99.90;;;;;;21075127;28;19951;-77
2023/08/31 07:04:45;;;;;;;;;;;15.10;99.90;;;;;;21056592;28;19920;-76
2023/08/31 07:14:46;;;;;;;;;;;15.10;99.90;;;;;;21077602;28;20355;-76
2023/08/31 07:24:46;;;;;;;;;;;15.10;99.90;;;;;;21077086;28;19916;-76
2023/08/31 07:34:47;;;;;;;;;;;15.10;99.90;;;;;;21074073;28;19916;-76
2023/08/31 07:44:48;;;;;;;;;;;15.10;99.90;;;;;;21073394;28;19916;-75
2023/08/31 07:54:48;;;;;;;;;;;16.10;99.90;;;;;;21073226;28;19912;-76
2023/08/31 08:04:49;;;;;;;;;;;16.20;99.90;;;;;;21143574;28;19969;-76
2023/08/31 08:14:50;;;;;;;;;;;15.90;99.90;;;;;;21163178;28;19919;-76
2023/08/31 08:24:50;;;;;;;;;;;16.60;99.90;;;;;;21171550;28;19916;-77
2023/08/31 08:34:51;;;;;;;;;;;16.90;99.90;;;;;;21092681;28;19916;-76
2023/08/31 08:44:52;;;;;;;;;;;16.90;99.90;;;;;;21085832;28;20350;-76
2023/08/31 08:54:53;;;;;;;;;;;17.10;99.90;;;;;;21085203;28;19948;-75
2023/08/31 09:04:54;;;;;;;;;;;17.40;99.90;;;;;;21070761;28;19916;-76
2023/08/31 09:15:04;;;;;;;;;;;17.20;99.90;;;;;;21083734;28;20349;-76
2023/08/31 09:25:05;;;;;;;;;;;17.40;99.90;;;;;;21082485;28;19916;-76
2023/08/31 09:35:08;;;;;;;;;;;17.10;99.90;;;;;;21081697;28;20508;-76
2023/08/31 09:45:09;;;;;;;;;;;16.90;99.90;;;;;;21081324;28;20294;-75
2023/08/31 09:55:11;;;;;;;;;;;17.70;99.90;;;;;;21081246;28;19912;-76
2023/08/31 10:05:11;;;;;;;;;;;17.90;99.90;;;;;;21080284;28;20031;-75
2023/08/31 10:15:12;;;;;;;;;;;17.70;99.90;;;;;;21075089;28;19952;-76
2023/08/31 10:25:13;;;;;;;;;;;17.80;99.90;;;;;;21103581;28;20320;-77
2023/08/31 10:35:13;;;;;;;;;;;17.90;99.90;;;;;;21228017;22;20385;-76
2023/08/31 10:45:14;;;;;;;;;;;18.50;99.90;;;;;;21247607;27;19955;-77
2023/08/31 10:55:15;;;;;;;;;;;19.10;99.90;;;;;;21253135;27;19986;-77
2023/08/31 11:05:17;;;;;;;;;;;18.80;99.90;;;;;;21249387;27;19961;-77
2023/08/31 11:15:18;;;;;;;;;;;18.10;99.90;;;;;;21251815;27;19918;-77
2023/08/31 11:25:21;;;;;;;;;;;18.50;99.90;;;;;;21232949;28;20354;-77
2023/08/31 11:35:23;;;;;;;;;;;19.40;99.90;;;;;;21176091;28;19923;-77
2023/08/31 11:45:24;;;;;;;;;;;19.30;99.90;;;;;;21148161;28;19926;-77
2023/08/31 11:55:24;;;;;;;;;;;18.90;99.90;;;;;;21180587;28;19947;-77
2023/08/31 12:05:26;;;;;;;;;;;18.20;99.90;;;;;;21240263;27;20397;-77
2023/08/31 12:15:32;;;;;;;;;;;18.70;99.90;;;;;;21265163;27;20262;-77
2023/08/31 12:25:33;;;;;;;;;;;18.90;99.90;;;;;;21265303;27;20482;-77
2023/08/31 12:35:34;;;;;;;;;;;19.70;99.90;;;;;;21264330;27;19915;-78
2023/08/31 12:45:34;;;;;;;;;;;20.00;99.90;;;;;;21263760;27;19915;-77
2023/08/31 12:55:35;;;;;;;;;;;20.50;99.90;;;;;;21229782;27;19918;-77
2023/08/31 13:05:40;;;;;;;;;;;20.10;99.90;;;;;;21173513;27;19916;-76
2023/08/31 13:15:40;;;;;;;;;;;20.10;99.90;;;;;;21173096;28;19955;-77
2023/08/31 13:25:41;;;;;;;;;;;20.10;99.90;;;;;;21257425;27;19923;-77
2023/08/31 13:35:41;;;;;;;;;;;19.90;99.90;;;;;;21241861;27;19915;-77
2023/08/31 13:45:42;;;;;;;;;;;19.80;99.90;;;;;;21258230;27;19998;-77
2023/08/31 13:55:43;;;;;;;;;;;20.10;99.90;;;;;;21254164;27;19915;-77
2023/08/31 14:05:47;;;;;;;;;;;19.80;99.90;;;;;;21256778;27;19939;-77
2023/08/31 14:15:47;;;;;;;;;;;19.90;99.90;;;;;;21256407;27;19911;-77
2023/08/31 14:25:48;;;;;;;;;;;19.30;99.90;;;;;;21255007;27;20403;-77
2023/08/31 14:35:55;;;;;;;;;;;19.40;99.90;;;;;;21254742;27;19915;-77
2023/08/31 14:45:56;;;;;;;;;;;19.90;99.90;;;;;;21230046;27;19961;-77
2023/08/31 14:55:56;;;;;;;;;;;20.20;99.90;;;;;;21246872;27;19912;-77
2023/08/31 15:05:57;;;;;;;;;;;20.20;99.90;;;;;;21163394;27;19922;-76
2023/08/31 15:15:59;;;;;;;;;;;19.70;99.90;;;;;;21159022;28;20405;-77
2023/08/31 15:26:00;;;;;;;;;;;19.50;99.90;;;;;;21170981;28;19968;-76
2023/08/31 15:36:03;;;;;;;;;;;20.00;99.90;;;;;;21258011;27;19916;-76
2023/08/31 15:46:04;;;;;;;;;;;20.00;99.90;;;;;;21261324;27;19919;-77
2023/08/31 15:56:05;;;;;;;;;;;20.20;99.90;;;;;;21227063;27;19999;-77
2023/08/31 16:06:07;;;;;;;;;;;19.60;99.90;;;;;;21264276;27;19923;-77
2023/08/31 16:16:08;;;;;;;;;;;19.70;99.90;;;;;;21229737;27;19911;-78
2023/08/31 16:26:09;;;;;;;;;;;19.50;99.90;;;;;;21254641;27;19923;-77
2023/08/31 16:36:10;;;;;;;;;;;19.60;99.90;;;;;;21244967;22;20019;-77
2023/08/31 16:46:11;;;;;;;;;;;19.70;99.90;;;;;;21156133;28;19977;-77
2023/08/31 16:56:12;;;;;;;;;;;19.60;99.90;;;;;;21083800;28;20427;-77
2023/08/31 17:06:13;;;;;;;;;;;19.50;99.90;;;;;;21063417;28;19966;-76
2023/08/31 17:16:14;;;;;;;;;;;19.50;99.90;;;;;;21039403;28;19913;-77
2023/08/31 17:26:25;;;;;;;;;;;19.50;99.90;;;;;;21001580;28;19920;-77
2023/08/31 17:36:26;;;;;;;;;;;19.40;99.90;;;;;;21035110;28;20348;-77
2023/08/31 17:46:26;;;;;;;;;;;18.60;99.90;;;;;;21073667;28;19962;-76
2023/08/31 17:56:27;;;;;;;;;;;18.30;99.90;;;;;;21078745;28;19912;-76
2023/08/31 18:06:28;;;;;;;;;;;18.00;99.90;;;;;;21078401;28;20340;-76
2023/08/31 18:16:28;;;;;;;;;;;17.90;99.90;;;;;;21077394;28;19959;-77
2023/08/31 18:26:29;;;;;;;;;;;17.30;99.90;;;;;;21040842;28;19947;-77
2023/08/31 18:36:31;;;;;;;;;;;17.10;99.90;;;;;;21017414;28;21705;-77
2023/08/31 18:46:32;;;;;;;;;;;17.10;99.90;;;;;;21057029;28;19916;-77
2023/08/31 18:56:33;;;;;;;;;;;16.90;99.90;;;;;;21082606;28;20305;-77
2023/08/31 19:06:33;;;;;;;;;;;16.70;99.90;;;;;;21080655;28;19916;-77
2023/08/31 19:16:35;;;;;;;;;;;16.80;99.90;;;;;;21004003;28;20378;-77
2023/08/31 19:26:38;;;;;;;;;;;16.50;99.90;;;;;;20984945;28;20412;-77
2023/08/31 19:36:39;;;;;;;;;;;16.70;99.90;;;;;;21080385;28;20393;-77
2023/08/31 19:46:40;;;;;;;;;;;16.60;99.90;;;;;;21043089;28;19917;-77
2023/08/31 19:56:41;;;;;;;;;;;16.70;99.90;;;;;;21007557;28;19919;-77
2023/08/31 20:06:41;;;;;;;;;;;16.50;99.90;;;;;;21067690;28;19923;-76
2023/08/31 20:16:44;;;;;;;;;;;16.60;99.90;;;;;;21015782;28;19917;-77
2023/08/31 20:26:46;;;;;;;;;;;16.30;99.90;;;;;;21005541;28;19938;-76
2023/08/31 20:36:47;;;;;;;;;;;16.30;99.90;;;;;;21085994;28;19981;-76
2023/08/31 20:46:48;;;;;;;;;;;16.00;99.90;;;;;;21086290;28;19970;-76
2023/08/31 20:56:48;;;;;;;;;;;16.00;99.90;;;;;;21085600;28;19912;-77
2023/08/31 21:06:49;;;;;;;;;;;16.00;99.90;;;;;;21066534;28;19916;-77
2023/08/31 21:16:50;;;;;;;;;;;16.00;99.90;;;;;;21062033;28;19913;-76
2023/08/31 21:26:50;;;;;;;;;;;15.80;99.90;;;;;;21072964;28;19962;-77
2023/08/31 21:36:51;;;;;;;;;;;15.80;99.90;;;;;;21081073;28;19956;-76
2023/08/31 21:46:52;;;;;;;;;;;15.80;99.90;;;;;;21034775;28;19927;-76
2023/08/31 21:56:52;;;;;;;;;;;15.50;99.90;;;;;;21019494;28;20003;-76
2023/08/31 22:06:55;;;;;;;;;;;15.30;99.90;;;;;;21061818;28;19997;-77
2023/08/31 22:16:55;;;;;;;;;;;15.20;99.90;;;;;;21093933;28;19916;-76
2023/08/31 22:26:57;;;;;;;;;;;14.90;99.90;;;;;;21077456;28;20507;-76
2023/08/31 22:36:57;;;;;;;;;;;15.10;99.90;;;;;;21113347;22;19923;-76
2023/08/31 22:46:58;;;;;;;;;;;14.90;99.90;;;;;;21263822;27;19930;-76
2023/08/31 22:56:59;;;;;;;;;;;14.80;99.90;;;;;;21325672;27;19991;-77
2023/08/31 23:06:59;;;;;;;;;;;14.60;99.90;;;;;;21244319;27;19972;-77
2023/08/31 23:17:00;;;;;;;;;;;14.50;99.90;;;;;;21243040;27;20294;-77
2023/08/31 23:27:01;;;;;;;;;;;14.60;99.90;;;;;;21241199;27;19922;-77
2023/08/31 23:37:02;;;;;;;;;;;14.50;99.90;;;;;;21239984;27;20292;-77
2023/08/31 23:47:02;;;;;;;;;;;14.50;99.90;;;;;;21250097;27;19923;-77
2023/08/31 23:57:03;;;;;;;;;;;14.50;99.90;;;;;;21257749;27;20400;-77
